sensor_id;sensor_type;location;lat;lon;timestamp;pressure;altitude;pressure_sealevel;temperature;humidity
62725;BME280;49026;52.600;4.694;2023-04-25T00:01:18;101137.44;;;5.23;80.67
62725;BME280;49026;52.600;4.694;2023-04-25T00:03:44;101132.25;;;5.22;80.69
62725;BME280;49026;52.600;4.694;2023-04-25T00:06:11;101134.03;;;5.19;80.45
62725;BME280;49026;52.600;4.694;2023-04-25T00:08:37;101137.50;;;5.18;80.20
62725;BME280;49026;52.600;4.694;2023-04-25T00:11:02;101143.59;;;5.17;80.58
62725;BME280;49026;52.600;4.694;2023-04-25T00:13:28;101142.75;;;5.15;80.32
62725;BME280;49026;52.600;4.694;2023-04-25T00:15:53;101141.84;;;5.19;80.28
62725;BME280;49026;52.600;4.694;2023-04-25T00:18:19;101143.50;;;5.25;79.83
62725;BME280;49026;52.600;4.694;2023-04-25T00:20:45;101149.53;;;5.27;80.29
62725;BME280;49026;52.600;4.694;2023-04-25T00:23:13;101141.66;;;5.32;80.00
62725;BME280;49026;52.600;4.694;2023-04-25T00:25:43;101142.47;;;5.35;79.57
62725;BME280;49026;52.600;4.694;2023-04-25T00:28:09;101153.75;;;5.36;80.02
62725;BME280;49026;52.600;4.694;2023-04-25T00:30:34;101145.06;;;5.37;79.75
62725;BME280;49026;52.600;4.694;2023-04-25T00:33:00;101150.25;;;5.40;79.84
62725;BME280;49026;52.600;4.694;2023-04-25T00:35:32;101141.53;;;5.41;79.43
62725;BME280;49026;52.600;4.694;2023-04-25T00:37:58;101141.53;;;5.41;79.89
62725;BME280;49026;52.600;4.694;2023-04-25T00:40:26;101147.63;;;5.40;79.50
62725;BME280;49026;52.600;4.694;2023-04-25T00:42:52;101150.25;;;5.38;79.81
62725;BME280;49026;52.600;4.694;2023-04-25T00:45:28;101158.97;;;5.36;79.87
62725;BME280;49026;52.600;4.694;2023-04-25T00:47:54;101157.28;;;5.33;79.66
62725;BME280;49026;52.600;4.694;2023-04-25T00:50:19;101152.13;;;5.29;79.13
62725;BME280;49026;52.600;4.694;2023-04-25T00:52:45;101158.28;;;5.23;79.87
62725;BME280;49026;52.600;4.694;2023-04-25T00:55:15;101154.88;;;5.18;79.29
62725;BME280;49026;52.600;4.694;2023-04-25T00:57:41;101160.16;;;5.13;79.84
62725;BME280;49026;52.600;4.694;2023-04-25T01:00:08;101168.88;;;5.09;79.67
62725;BME280;49026;52.600;4.694;2023-04-25T01:02:35;101167.19;;;5.05;79.61
62725;BME280;49026;52.600;4.694;2023-04-25T01:05:03;101165.50;;;5.01;79.11
62725;BME280;49026;52.600;4.694;2023-04-25T01:07:29;101171.63;;;4.97;79.44
62725;BME280;49026;52.600;4.694;2023-04-25T01:09:54;101170.78;;;4.95;79.46
62725;BME280;49026;52.600;4.694;2023-04-25T01:12:20;101169.97;;;4.91;79.02
62725;BME280;49026;52.600;4.694;2023-04-25T01:14:45;101164.81;;;4.87;79.23
62725;BME280;49026;52.600;4.694;2023-04-25T01:17:13;101165.69;;;4.84;79.18
62725;BME280;49026;52.600;4.694;2023-04-25T01:19:40;101160.50;;;4.81;78.98
62725;BME280;49026;52.600;4.694;2023-04-25T01:22:05;101160.59;;;4.76;78.82
62725;BME280;49026;52.600;4.694;2023-04-25T01:24:33;101170.13;;;4.74;78.67
62725;BME280;49026;52.600;4.694;2023-04-25T01:27:00;101177.94;;;4.74;78.76
62725;BME280;49026;52.600;4.694;2023-04-25T01:29:27;101171.88;;;4.75;79.02
62725;BME280;49026;52.600;4.694;2023-04-25T01:31:55;101176.19;;;4.79;79.19
62725;BME280;49026;52.600;4.694;2023-04-25T01:34:23;101186.59;;;4.79;78.97
62725;BME280;49026;52.600;4.694;2023-04-25T01:36:49;101184.81;;;4.81;78.89
62725;BME280;49026;52.600;4.694;2023-04-25T01:39:16;101179.59;;;4.85;79.21
62725;BME280;49026;52.600;4.694;2023-04-25T01:41:42;101184.75;;;4.88;79.09
62725;BME280;49026;52.600;4.694;2023-04-25T01:44:07;101182.97;;;4.93;79.21
62725;BME280;49026;52.600;4.694;2023-04-25T01:46:37;101192.44;;;5.00;79.34
62725;BME280;49026;52.600;4.694;2023-04-25T01:49:02;101193.22;;;5.07;79.65
62725;BME280;49026;52.600;4.694;2023-04-25T01:51:31;101197.59;;;5.06;79.69
62725;BME280;49026;52.600;4.694;2023-04-25T01:53:57;101201.88;;;5.07;80.21
62725;BME280;49026;52.600;4.694;2023-04-25T01:56:25;101203.66;;;5.05;80.28
62725;BME280;49026;52.600;4.694;2023-04-25T01:58:53;101202.81;;;5.03;80.32
62725;BME280;49026;52.600;4.694;2023-04-25T02:01:18;101206.34;;;4.96;79.96
62725;BME280;49026;52.600;4.694;2023-04-25T02:03:44;101198.63;;;4.90;80.33
62725;BME280;49026;52.600;4.694;2023-04-25T02:06:09;101204.75;;;4.84;80.05
62725;BME280;49026;52.600;4.694;2023-04-25T02:08:34;101203.91;;;4.82;79.98
62725;BME280;49026;52.600;4.694;2023-04-25T02:11:00;101194.41;;;4.79;80.19
62725;BME280;49026;52.600;4.694;2023-04-25T02:13:25;101210.91;;;4.77;80.15
62725;BME280;49026;52.600;4.694;2023-04-25T02:15:55;101202.22;;;4.78;80.17
62725;BME280;49026;52.600;4.694;2023-04-25T02:18:20;101210.03;;;4.79;79.95
62725;BME280;49026;52.600;4.694;2023-04-25T02:20:46;101208.25;;;4.81;79.89
62725;BME280;49026;52.600;4.694;2023-04-25T02:23:14;101211.69;;;4.87;80.35
62725;BME280;49026;52.600;4.694;2023-04-25T02:25:43;101209.88;;;4.93;80.28
62725;BME280;49026;52.600;4.694;2023-04-25T02:28:08;101208.06;;;4.98;79.66
62725;BME280;49026;52.600;4.694;2023-04-25T02:30:33;101214.97;;;5.01;79.98
62725;BME280;49026;52.600;4.694;2023-04-25T02:33:01;101213.28;;;5.00;79.56
62725;BME280;49026;52.600;4.694;2023-04-25T02:35:26;101219.34;;;4.99;80.15
62725;BME280;49026;52.600;4.694;2023-04-25T02:37:54;101221.97;;;4.96;79.89
62725;BME280;49026;52.600;4.694;2023-04-25T02:40:19;101232.41;;;4.96;79.41
62725;BME280;49026;52.600;4.694;2023-04-25T02:42:47;101235.00;;;4.96;79.49
62725;BME280;49026;52.600;4.694;2023-04-25T02:45:12;101230.72;;;4.92;79.31
62725;BME280;49026;52.600;4.694;2023-04-25T02:47:38;101230.78;;;4.86;79.29
62725;BME280;49026;52.600;4.694;2023-04-25T02:50:03;101237.88;;;4.73;79.34
62725;BME280;49026;52.600;4.694;2023-04-25T02:52:31;101220.59;;;4.61;79.33
62725;BME280;49026;52.600;4.694;2023-04-25T02:54:57;101231.09;;;4.52;79.70
62725;BME280;49026;52.600;4.694;2023-04-25T02:57:22;101236.34;;;4.45;79.44
62725;BME280;49026;52.600;4.694;2023-04-25T02:59:47;101233.78;;;4.41;79.75
62725;BME280;49026;52.600;4.694;2023-04-25T03:02:15;101238.13;;;4.40;79.82
62725;BME280;49026;52.600;4.694;2023-04-25T03:04:40;101236.41;;;4.39;79.76
62725;BME280;49026;52.600;4.694;2023-04-25T03:07:08;101223.41;;;4.39;79.61
62725;BME280;49026;52.600;4.694;2023-04-25T03:09:35;101227.75;;;4.37;79.40
62725;BME280;49026;52.600;4.694;2023-04-25T03:12:01;101235.56;;;4.34;79.21
62725;BME280;49026;52.600;4.694;2023-04-25T03:14:26;101239.06;;;4.33;78.59
62725;BME280;49026;52.600;4.694;2023-04-25T03:16:51;101239.06;;;4.33;79.02
62725;BME280;49026;52.600;4.694;2023-04-25T03:19:19;101235.63;;;4.30;79.25
62725;BME280;49026;52.600;4.694;2023-04-25T03:21:45;101240.84;;;4.26;78.44
62725;BME280;49026;52.600;4.694;2023-04-25T03:24:13;101228.72;;;4.22;79.12
62725;BME280;49026;52.600;4.694;2023-04-25T03:26:38;101240.03;;;4.20;79.28
62725;BME280;49026;52.600;4.694;2023-04-25T03:29:03;101240.03;;;4.20;79.20
62725;BME280;49026;52.600;4.694;2023-04-25T03:31:31;101237.44;;;4.20;79.27
62725;BME280;49026;52.600;4.694;2023-04-25T03:33:56;101240.03;;;4.21;79.35
62725;BME280;49026;52.600;4.694;2023-04-25T03:36:22;101237.41;;;4.21;79.30
62725;BME280;49026;52.600;4.694;2023-04-25T03:38:47;101246.06;;;4.23;79.31
62725;BME280;49026;52.600;4.694;2023-04-25T03:41:13;101244.31;;;4.25;79.05
62725;BME280;49026;52.600;4.694;2023-04-25T03:43:43;101237.34;;;4.27;79.33
62725;BME280;49026;52.600;4.694;2023-04-25T03:46:08;101234.75;;;4.29;79.57
62725;BME280;49026;52.600;4.694;2023-04-25T03:48:36;101228.69;;;4.30;79.29
62725;BME280;49026;52.600;4.694;2023-04-25T03:51:01;101239.06;;;4.33;79.54
62725;BME280;49026;52.600;4.694;2023-04-25T03:53:26;101238.16;;;4.34;79.58
62725;BME280;49026;52.600;4.694;2023-04-25T03:55:52;101239.88;;;4.38;79.39
62725;BME280;49026;52.600;4.694;2023-04-25T03:58:19;101243.31;;;4.43;79.75
62725;BME280;49026;52.600;4.694;2023-04-25T04:00:44;101249.34;;;4.47;79.75
62725;BME280;49026;52.600;4.694;2023-04-25T04:03:10;101249.31;;;4.50;79.78
62725;BME280;49026;52.600;4.694;2023-04-25T04:05:36;101253.66;;;4.53;79.82
62725;BME280;49026;52.600;4.694;2023-04-25T04:08:03;101251.88;;;4.58;79.53
62725;BME280;49026;52.600;4.694;2023-04-25T04:10:29;101256.16;;;4.62;79.40
62725;BME280;49026;52.600;4.694;2023-04-25T04:13:02;101257.88;;;4.66;79.51
62725;BME280;49026;52.600;4.694;2023-04-25T04:15:27;101262.16;;;4.70;79.50
62725;BME280;49026;52.600;4.694;2023-04-25T04:17:55;101255.19;;;4.74;79.78
62725;BME280;49026;52.600;4.694;2023-04-25T04:20:22;101252.53;;;4.80;79.43
62725;BME280;49026;52.600;4.694;2023-04-25T04:22:47;101256.84;;;4.82;79.18
62725;BME280;49026;52.600;4.694;2023-04-25T04:25:15;101267.22;;;4.86;79.25
62725;BME280;49026;52.600;4.694;2023-04-25T04:27:42;101267.19;;;4.89;79.07
62725;BME280;49026;52.600;4.694;2023-04-25T04:30:13;101270.66;;;4.88;78.82
62725;BME280;49026;52.600;4.694;2023-04-25T04:32:38;101273.34;;;4.83;78.99
62725;BME280;49026;52.600;4.694;2023-04-25T04:35:04;101272.53;;;4.78;78.28
62725;BME280;49026;52.600;4.694;2023-04-25T04:37:30;101277.75;;;4.73;78.70
62725;BME280;49026;52.600;4.694;2023-04-25T04:39:55;101275.16;;;4.73;78.52
62725;BME280;49026;52.600;4.694;2023-04-25T04:42:21;101283.81;;;4.74;78.56
62725;BME280;49026;52.600;4.694;2023-04-25T04:44:48;101280.41;;;4.69;78.45
62725;BME280;49026;52.600;4.694;2023-04-25T04:47:16;101278.75;;;4.61;78.09
62725;BME280;49026;52.600;4.694;2023-04-25T04:49:41;101273.56;;;4.55;78.19
62725;BME280;49026;52.600;4.694;2023-04-25T04:52:07;101284.91;;;4.51;78.24
62725;BME280;49026;52.600;4.694;2023-04-25T04:54:32;101277.97;;;4.49;78.32
62725;BME280;49026;52.600;4.694;2023-04-25T04:57:00;101285.78;;;4.47;78.50
62725;BME280;49026;52.600;4.694;2023-04-25T04:59:25;101291.84;;;4.48;78.36
62725;BME280;49026;52.600;4.694;2023-04-25T05:01:52;101303.97;;;4.52;78.40
62725;BME280;49026;52.600;4.694;2023-04-25T05:04:21;101301.34;;;4.56;78.39
62725;BME280;49026;52.600;4.694;2023-04-25T05:06:47;101303.88;;;4.64;78.60
62725;BME280;49026;52.600;4.694;2023-04-25T05:09:12;101308.09;;;4.76;78.85
62725;BME280;49026;52.600;4.694;2023-04-25T05:11:40;101313.25;;;4.85;78.86
62725;BME280;49026;52.600;4.694;2023-04-25T05:14:05;101316.66;;;4.93;78.81
62725;BME280;49026;52.600;4.694;2023-04-25T05:16:30;101320.03;;;5.01;78.79
62725;BME280;49026;52.600;4.694;2023-04-25T05:18:56;101326.84;;;5.18;78.90
62725;BME280;49026;52.600;4.694;2023-04-25T05:21:21;101333.69;;;5.28;78.34
62725;BME280;49026;52.600;4.694;2023-04-25T05:23:46;101331.88;;;5.33;78.37
62725;BME280;49026;52.600;4.694;2023-04-25T05:26:12;101330.13;;;5.35;78.44
62725;BME280;49026;52.600;4.694;2023-04-25T05:28:41;101330.94;;;5.39;78.61
62725;BME280;49026;52.600;4.694;2023-04-25T05:31:09;101331.69;;;5.50;79.10
62725;BME280;49026;52.600;4.694;2023-04-25T05:33:35;101329.91;;;5.55;79.00
62725;BME280;49026;52.600;4.694;2023-04-25T05:36:00;101327.28;;;5.57;79.06
62725;BME280;49026;52.600;4.694;2023-04-25T05:38:27;101324.63;;;5.60;79.12
62725;BME280;49026;52.600;4.694;2023-04-25T05:40:53;101341.09;;;5.64;79.11
62725;BME280;49026;52.600;4.694;2023-04-25T05:43:18;101342.78;;;5.68;79.15
62725;BME280;49026;52.600;4.694;2023-04-25T05:45:43;101344.50;;;5.70;79.33
62725;BME280;49026;52.600;4.694;2023-04-25T05:48:09;101347.94;;;5.72;79.30
62725;BME280;49026;52.600;4.694;2023-04-25T05:50:34;101358.38;;;5.74;79.66
62725;BME280;49026;52.600;4.694;2023-04-25T05:53:00;101357.47;;;5.77;78.90
62725;BME280;49026;52.600;4.694;2023-04-25T05:55:25;101361.75;;;5.81;79.55
62725;BME280;49026;52.600;4.694;2023-04-25T05:57:50;101363.41;;;5.86;78.94
62725;BME280;49026;52.600;4.694;2023-04-25T06:00:18;101361.59;;;5.94;78.81
62725;BME280;49026;52.600;4.694;2023-04-25T06:02:44;101362.41;;;6.01;78.56
62725;BME280;49026;52.600;4.694;2023-04-25T06:05:09;101360.56;;;6.08;79.16
62725;BME280;49026;52.600;4.694;2023-04-25T06:07:34;101372.69;;;6.14;78.87
62725;BME280;49026;52.600;4.694;2023-04-25T06:10:00;101364.81;;;6.18;78.73
62725;BME280;49026;52.600;4.694;2023-04-25T06:12:26;101372.53;;;6.24;78.47
62725;BME280;49026;52.600;4.694;2023-04-25T06:14:51;101380.28;;;6.30;78.95
62725;BME280;49026;52.600;4.694;2023-04-25T06:17:16;101382.75;;;6.40;78.15
62725;BME280;49026;52.600;4.694;2023-04-25T06:19:41;101380.00;;;6.52;78.21
62725;BME280;49026;52.600;4.694;2023-04-25T06:22:09;101382.31;;;6.72;78.93
62725;BME280;49026;52.600;4.694;2023-04-25T06:24:35;101389.72;;;6.98;79.01
62725;BME280;49026;52.600;4.694;2023-04-25T06:27:00;101399.94;;;7.14;79.08
62725;BME280;49026;52.600;4.694;2023-04-25T06:29:26;101387.59;;;7.22;78.98
62725;BME280;49026;52.600;4.694;2023-04-25T06:31:51;101396.31;;;7.21;80.00
62725;BME280;49026;52.600;4.694;2023-04-25T06:34:19;101405.03;;;7.20;79.67
62725;BME280;49026;52.600;4.694;2023-04-25T06:36:44;101394.53;;;7.23;79.60
62725;BME280;49026;52.600;4.694;2023-04-25T06:39:10;101397.78;;;7.36;79.82
62725;BME280;49026;52.600;4.694;2023-04-25T06:41:35;101395.81;;;7.49;80.33
62725;BME280;49026;52.600;4.694;2023-04-25T06:44:03;101393.94;;;7.57;80.18
62725;BME280;49026;52.600;4.694;2023-04-25T06:46:28;101402.69;;;7.54;80.15
62725;BME280;49026;52.600;4.694;2023-04-25T06:48:54;101408.03;;;7.47;78.74
62725;BME280;49026;52.600;4.694;2023-04-25T06:51:23;101406.41;;;7.41;79.31
62725;BME280;49026;52.600;4.694;2023-04-25T06:53:49;101415.88;;;7.48;79.52
62725;BME280;49026;52.600;4.694;2023-04-25T06:56:17;101438.56;;;7.46;79.21
62725;BME280;49026;52.600;4.694;2023-04-25T06:58:43;101429.53;;;7.13;77.11
62725;BME280;49026;52.600;4.694;2023-04-25T07:01:08;101428.31;;;6.81;78.13
62725;BME280;49026;52.600;4.694;2023-04-25T07:03:33;101427.63;;;6.66;78.16
62725;BME280;49026;52.600;4.694;2023-04-25T07:05:58;101425.97;;;6.62;77.96
62725;BME280;49026;52.600;4.694;2023-04-25T07:08:24;101419.63;;;6.79;77.86
62725;BME280;49026;52.600;4.694;2023-04-25T07:10:49;101424.53;;;7.00;78.63
62725;BME280;49026;52.600;4.694;2023-04-25T07:13:17;101428.59;;;7.18;78.11
62725;BME280;49026;52.600;4.694;2023-04-25T07:15:44;101434.50;;;7.28;77.87
62725;BME280;49026;52.600;4.694;2023-04-25T07:18:09;101423.22;;;7.28;77.81
62725;BME280;49026;52.600;4.694;2023-04-25T07:20:37;101430.91;;;7.37;77.52
62725;BME280;49026;52.600;4.694;2023-04-25T07:23:03;101439.44;;;7.47;77.76
62725;BME280;49026;52.600;4.694;2023-04-25T07:25:28;101436.88;;;7.44;77.91
62725;BME280;49026;52.600;4.694;2023-04-25T07:27:53;101441.22;;;7.43;77.72
62725;BME280;49026;52.600;4.694;2023-04-25T07:30:19;101436.78;;;7.48;77.16
62725;BME280;49026;52.600;4.694;2023-04-25T07:32:47;101435.88;;;7.51;78.18
62725;BME280;49026;52.600;4.694;2023-04-25T07:35:12;101437.44;;;7.61;78.01
62725;BME280;49026;52.600;4.694;2023-04-25T07:37:40;101449.34;;;7.77;78.76
62725;BME280;49026;52.600;4.694;2023-04-25T07:40:06;101449.81;;;7.98;79.71
62725;BME280;49026;52.600;4.694;2023-04-25T07:42:32;101463.44;;;8.17;80.14
62725;BME280;49026;52.600;4.694;2023-04-25T07:44:58;101459.28;;;8.50;80.50
62725;BME280;49026;52.600;4.694;2023-04-25T07:47:23;101462.88;;;8.85;81.36
62725;BME280;49026;52.600;4.694;2023-04-25T07:49:48;101471.91;;;8.72;80.75
62725;BME280;49026;52.600;4.694;2023-04-25T07:52:14;101478.31;;;8.59;80.20
62725;BME280;49026;52.600;4.694;2023-04-25T07:54:39;101469.84;;;8.46;79.77
62725;BME280;49026;52.600;4.694;2023-04-25T07:57:04;101477.88;;;8.35;80.56
62725;BME280;49026;52.600;4.694;2023-04-25T07:59:31;101484.06;;;8.31;79.84
62725;BME280;49026;52.600;4.694;2023-04-25T08:01:57;101493.66;;;8.32;79.17
62725;BME280;49026;52.600;4.694;2023-04-25T08:04:22;101503.47;;;8.22;78.65
62725;BME280;49026;52.600;4.694;2023-04-25T08:06:48;101504.25;;;8.26;79.50
62725;BME280;49026;52.600;4.694;2023-04-25T08:09:15;101509.38;;;8.32;79.35
62725;BME280;49026;52.600;4.694;2023-04-25T08:11:41;101496.94;;;8.43;79.27
62725;BME280;49026;52.600;4.694;2023-04-25T08:14:07;101501.00;;;8.58;78.19
62725;BME280;49026;52.600;4.694;2023-04-25T08:16:33;101515.88;;;8.58;77.11
62725;BME280;49026;52.600;4.694;2023-04-25T08:18:59;101513.38;;;8.51;76.43
62725;BME280;49026;52.600;4.694;2023-04-25T08:21:27;101513.44;;;8.47;76.79
62725;BME280;49026;52.600;4.694;2023-04-25T08:23:52;101518.78;;;8.44;74.47
62725;BME280;49026;52.600;4.694;2023-04-25T08:26:18;101528.75;;;8.22;72.81
62725;BME280;49026;52.600;4.694;2023-04-25T08:28:43;101552.88;;;7.92;73.54
62725;BME280;49026;52.600;4.694;2023-04-25T08:31:08;101541.00;;;7.73;73.91
62725;BME280;49026;52.600;4.694;2023-04-25T08:33:33;101542.72;;;7.74;74.65
62725;BME280;49026;52.600;4.694;2023-04-25T08:35:59;101551.41;;;7.76;73.92
62725;BME280;49026;52.600;4.694;2023-04-25T08:38:26;101546.19;;;7.74;72.70
62725;BME280;49026;52.600;4.694;2023-04-25T08:40:52;101548.97;;;7.65;72.88
62725;BME280;49026;52.600;4.694;2023-04-25T08:43:19;101550.75;;;7.63;74.42
62725;BME280;49026;52.600;4.694;2023-04-25T08:45:48;101559.38;;;7.68;73.46
62725;BME280;49026;52.600;4.694;2023-04-25T08:48:15;101554.00;;;7.77;73.03
62725;BME280;49026;52.600;4.694;2023-04-25T08:50:45;101545.91;;;7.91;73.04
62725;BME280;49026;52.600;4.694;2023-04-25T08:53:16;101536.72;;;8.17;74.51
62725;BME280;49026;52.600;4.694;2023-04-25T08:55:47;101549.09;;;8.56;75.67
62725;BME280;49026;52.600;4.694;2023-04-25T08:58:16;101548.66;;;9.16;76.57
62725;BME280;49026;52.600;4.694;2023-04-25T09:00:43;101553.44;;;9.72;77.91
62725;BME280;49026;52.600;4.694;2023-04-25T09:03:18;101557.19;;;9.96;75.89
62725;BME280;49026;52.600;4.694;2023-04-25T09:05:46;101559.84;;;9.60;70.99
62725;BME280;49026;52.600;4.694;2023-04-25T09:08:13;101568.59;;;9.23;71.58
62725;BME280;49026;52.600;4.694;2023-04-25T09:10:40;101578.72;;;9.00;72.16
62725;BME280;49026;52.600;4.694;2023-04-25T09:13:10;101586.88;;;8.87;70.39
62725;BME280;49026;52.600;4.694;2023-04-25T09:15:52;101582.00;;;8.69;70.77
62725;BME280;49026;52.600;4.694;2023-04-25T09:18:34;101591.94;;;8.51;70.60
62725;BME280;49026;52.600;4.694;2023-04-25T09:21:07;101632.41;;;7.84;70.25
62725;BME280;49026;52.600;4.694;2023-04-25T09:23:59;101619.34;;;6.52;70.81
62725;BME280;49026;52.600;4.694;2023-04-25T09:26:25;101626.09;;;5.77;73.55
62725;BME280;49026;52.600;4.694;2023-04-25T09:29:04;101633.34;;;5.30;75.39
62725;BME280;49026;52.600;4.694;2023-04-25T09:31:32;101631.72;;;5.03;74.61
62725;BME280;49026;52.600;4.694;2023-04-25T09:34:01;101632.63;;;4.97;74.56
62725;BME280;49026;52.600;4.694;2023-04-25T09:36:27;101643.91;;;5.00;74.76
62725;BME280;49026;52.600;4.694;2023-04-25T09:38:55;101647.34;;;5.10;74.18
62725;BME280;49026;52.600;4.694;2023-04-25T09:41:24;101625.56;;;5.19;74.18
62725;BME280;49026;52.600;4.694;2023-04-25T09:43:50;101622.97;;;5.17;74.14
62725;BME280;49026;52.600;4.694;2023-04-25T09:46:16;101623.88;;;5.15;74.29
62725;BME280;49026;52.600;4.694;2023-04-25T09:48:48;101630.75;;;5.25;74.44
62725;BME280;49026;52.600;4.694;2023-04-25T09:51:14;101629.66;;;5.63;75.13
62725;BME280;49026;52.600;4.694;2023-04-25T09:53:44;101620.59;;;6.15;75.53
62725;BME280;49026;52.600;4.694;2023-04-25T09:56:12;101628.66;;;6.76;75.75
62725;BME280;49026;52.600;4.694;2023-04-25T09:58:41;101620.03;;;7.36;77.27
62725;BME280;49026;52.600;4.694;2023-04-25T10:01:08;101631.56;;;7.80;76.55
62725;BME280;49026;52.600;4.694;2023-04-25T10:03:36;101626.88;;;8.02;76.82
62725;BME280;49026;52.600;4.694;2023-04-25T10:06:12;101646.13;;;7.96;76.72
62725;BME280;49026;52.600;4.694;2023-04-25T10:08:38;101647.09;;;7.91;76.11
62725;BME280;49026;52.600;4.694;2023-04-25T10:11:07;101653.06;;;8.01;77.03
62725;BME280;49026;52.600;4.694;2023-04-25T10:13:34;101649.88;;;7.80;76.92
62725;BME280;49026;52.600;4.694;2023-04-25T10:16:02;101666.84;;;7.53;76.31
62725;BME280;49026;52.600;4.694;2023-04-25T10:18:31;101663.59;;;7.38;76.77
62725;BME280;49026;52.600;4.694;2023-04-25T10:20:58;101663.31;;;7.57;77.08
62725;BME280;49026;52.600;4.694;2023-04-25T10:23:24;101665.72;;;7.72;77.67
62725;BME280;49026;52.600;4.694;2023-04-25T10:25:51;101684.06;;;7.69;77.89
62725;BME280;49026;52.600;4.694;2023-04-25T10:28:20;101679.03;;;7.57;77.48
62725;BME280;49026;52.600;4.694;2023-04-25T10:31:02;101687.97;;;7.40;77.66
62725;BME280;49026;52.600;4.694;2023-04-25T10:33:34;101691.63;;;7.26;77.65
62725;BME280;49026;52.600;4.694;2023-04-25T10:36:14;101697.75;;;7.23;77.59
62725;BME280;49026;52.600;4.694;2023-04-25T10:38:43;101687.00;;;7.45;79.00
62725;BME280;49026;52.600;4.694;2023-04-25T10:41:09;101690.06;;;7.76;79.11
62725;BME280;49026;52.600;4.694;2023-04-25T10:43:45;101688.56;;;8.17;79.73
62725;BME280;49026;52.600;4.694;2023-04-25T10:46:22;101681.84;;;8.53;79.56
62725;BME280;49026;52.600;4.694;2023-04-25T10:48:52;101686.53;;;8.84;79.74
62725;BME280;49026;52.600;4.694;2023-04-25T10:51:26;101680.94;;;9.42;80.67
62725;BME280;49026;52.600;4.694;2023-04-25T10:56:22;101687.72;;;9.91;79.88
62725;BME280;49026;52.600;4.694;2023-04-25T10:58:49;101673.63;;;9.94;79.37
62725;BME280;49026;52.600;4.694;2023-04-25T11:01:21;101682.94;;;9.71;78.99
62725;BME280;49026;52.600;4.694;2023-04-25T11:03:57;101678.88;;;9.58;78.39
62725;BME280;49026;52.600;4.694;2023-04-25T11:06:30;101680.41;;;9.67;77.80
62725;BME280;49026;52.600;4.694;2023-04-25T11:08:57;101679.59;;;10.00;76.76
62725;BME280;49026;52.600;4.694;2023-04-25T11:11:25;101670.91;;;10.36;76.51
62725;BME280;49026;52.600;4.694;2023-04-25T11:13:51;101679.06;;;10.58;75.10
62725;BME280;49026;52.600;4.694;2023-04-25T11:16:17;101673.03;;;10.54;71.53
62725;BME280;49026;52.600;4.694;2023-04-25T11:18:43;101679.59;;;10.38;73.27
62725;BME280;49026;52.600;4.694;2023-04-25T11:21:09;101678.47;;;10.47;74.26
62725;BME280;49026;52.600;4.694;2023-04-25T11:23:35;101668.63;;;10.55;73.54
62725;BME280;49026;52.600;4.694;2023-04-25T11:26:02;101673.19;;;10.48;70.03
62725;BME280;49026;52.600;4.694;2023-04-25T11:28:28;101679.78;;;10.29;71.34
62725;BME280;49026;52.600;4.694;2023-04-25T11:30:53;101683.50;;;10.56;72.83
62725;BME280;49026;52.600;4.694;2023-04-25T11:33:26;101684.44;;;10.86;71.92
62725;BME280;49026;52.600;4.694;2023-04-25T11:35:56;101686.50;;;11.06;72.30
62725;BME280;49026;52.600;4.694;2023-04-25T11:38:25;101691.78;;;11.36;71.21
62725;BME280;49026;52.600;4.694;2023-04-25T11:40:52;101690.50;;;11.49;70.22
62725;BME280;49026;52.600;4.694;2023-04-25T11:43:20;101686.78;;;11.57;68.25
62725;BME280;49026;52.600;4.694;2023-04-25T11:45:53;101689.56;;;11.21;66.23
62725;BME280;49026;52.600;4.694;2023-04-25T11:48:19;101685.63;;;11.06;68.11
62725;BME280;49026;52.600;4.694;2023-04-25T11:50:47;101691.75;;;11.38;68.26
62725;BME280;49026;52.600;4.694;2023-04-25T11:53:13;101693.72;;;11.29;67.09
62725;BME280;49026;52.600;4.694;2023-04-25T11:55:41;101699.91;;;10.97;66.01
62725;BME280;49026;52.600;4.694;2023-04-25T11:58:07;101700.25;;;11.16;66.83
62725;BME280;49026;52.600;4.694;2023-04-25T12:00:33;101712.38;;;11.52;65.80
62725;BME280;49026;52.600;4.694;2023-04-25T12:03:01;101700.59;;;11.63;64.04
62725;BME280;49026;52.600;4.694;2023-04-25T12:05:31;101702.66;;;11.54;64.28
62725;BME280;49026;52.600;4.694;2023-04-25T12:08:14;101719.53;;;11.76;65.45
62725;BME280;49026;52.600;4.694;2023-04-25T12:10:41;101708.28;;;11.71;62.29
62725;BME280;49026;52.600;4.694;2023-04-25T12:13:23;101713.28;;;11.50;63.22
62725;BME280;49026;52.600;4.694;2023-04-25T12:15:49;101710.25;;;11.64;65.22
62725;BME280;49026;52.600;4.694;2023-04-25T12:18:18;101713.28;;;11.79;64.90
62725;BME280;49026;52.600;4.694;2023-04-25T12:20:44;101724.78;;;11.76;63.48
62725;BME280;49026;52.600;4.694;2023-04-25T12:23:09;101718.53;;;11.50;61.81
62725;BME280;49026;52.600;4.694;2023-04-25T12:25:43;101723.38;;;11.36;64.62
62725;BME280;49026;52.600;4.694;2023-04-25T12:33:25;101729.13;;;11.77;64.82
62725;BME280;49026;52.600;4.694;2023-04-25T12:35:54;101737.56;;;11.89;63.32
62725;BME280;49026;52.600;4.694;2023-04-25T12:38:30;101733.41;;;11.81;61.92
62725;BME280;49026;52.600;4.694;2023-04-25T12:40:59;101736.06;;;11.52;59.58
62725;BME280;49026;52.600;4.694;2023-04-25T12:43:25;101733.41;;;11.22;61.77
62725;BME280;49026;52.600;4.694;2023-04-25T12:45:52;101735.22;;;11.20;61.62
62725;BME280;49026;52.600;4.694;2023-04-25T12:48:18;101739.59;;;11.19;60.27
62725;BME280;49026;52.600;4.694;2023-04-25T12:50:47;101733.94;;;11.35;61.94
62725;BME280;49026;52.600;4.694;2023-04-25T12:53:19;101733.28;;;11.56;61.43
62725;BME280;49026;52.600;4.694;2023-04-25T12:55:45;101734.31;;;11.80;62.62
62725;BME280;49026;52.600;4.694;2023-04-25T12:58:12;101739.41;;;11.86;60.49
62725;BME280;49026;52.600;4.694;2023-04-25T13:00:40;101755.28;;;11.54;61.25
62725;BME280;49026;52.600;4.694;2023-04-25T13:03:08;101748.41;;;11.49;62.84
62725;BME280;49026;52.600;4.694;2023-04-25T13:05:34;101756.69;;;11.65;61.83